Terminal Aerodrome Forecast
Issued by NWS Pittsburgh, PA

Home | Current Version | Previous Version | Text Only | Print | Product List | Glossary On
Versions: 1 2 3 4 5 6 7 8 9 10 11 12 13 14 15 16 17 18 19 20 21 22 23 24 25 26 27 28 29 30
000
FTUS41 KPBZ 281457 AAA
TAFPIT
TAF AMD
KPIT 281457Z 2815/2918 17003KT 3SM -SHRA BR OVC015
      TEMPO 2815/2818 1 1/2SM -SHRA BR BKN008
     FM281800 33010KT P6SM OVC015
     FM290300 33005KT P6SM OVC008=

USA.gov is the U.S. government's official web portal to all federal, state and local government web resources and services.